Time;durP1;ratioP1;P1;durP2;ratioP2;P2;SDS_P1;SDS_P2;PMS_P1;PMS_P2;Temp;Humidity;BMP_temperature;BMP_pressure;BME280_temperature;BME280_humidity;BME280_pressure;Samples;Min_cycle;Max_cycle;Signal;HPM_P1;HPM_P2
2023/07/15 00:01:05;41108.00;0.14;71.81;0.00;0.00;0.62;;;;;25.60;1.00;;;;;;2291603;39;3743;-86
2023/07/15 00:03:32;35928.00;0.12;62.84;0.00;0.00;0.62;;;;;25.60;1.00;;;;;;2280388;60;1234;-86
2023/07/15 00:05:59;463244.00;1.54;798.57;0.00;0.00;0.62;;;;;25.60;1.00;;;;;;2287677;56;3782;-87
2023/07/15 00:08:28;276097.00;0.92;476.83;0.00;0.00;0.62;;;;;25.60;1.00;;;;;;2280292;60;1011;-88
2023/07/15 00:13:24;743129.00;2.48;1282.11;0.00;0.00;0.62;;;;;25.40;1.00;;;;;;2282119;60;1416;-88
2023/07/15 00:15:53;376416.00;1.25;649.26;0.00;0.00;0.62;;;;;25.30;1.00;;;;;;2280315;60;1715;-88
2023/07/15 00:18:20;168196.00;0.56;291.16;0.00;0.00;0.62;;;;;25.30;1.00;;;;;;2280209;60;1849;-88
2023/07/15 00:20:48;205897.00;0.69;356.07;0.00;0.00;0.62;;;;;25.20;1.00;;;;;;2280219;60;1381;-87
2023/07/15 00:23:19;157353.00;0.52;272.48;0.00;0.00;0.62;;;;;25.00;1.00;;;;;;2280201;60;1207;-89
2023/07/15 00:25:50;417076.00;1.39;719.16;98823.00;0.33;171.54;;;;;24.90;1.00;;;;;;2280243;60;1982;-88
2023/07/15 00:28:17;378107.00;1.26;652.17;129746.00;0.43;224.89;;;;;24.70;1.00;;;;;;2280229;60;1596;-87
2023/07/15 00:30:45;201575.00;0.67;348.63;53890.00;0.18;93.91;;;;;24.80;1.00;;;;;;2280283;60;1393;-86
2023/07/15 00:33:15;304042.00;1.01;524.87;41678.00;0.14;72.79;;;;;25.00;1.00;;;;;;2280203;60;1037;-88
2023/07/15 00:35:43;179711.00;0.60;310.99;0.00;0.00;0.62;;;;;25.30;1.00;;;;;;2280292;60;985;-86
2023/07/15 00:38:11;207149.00;0.69;358.23;0.00;0.00;0.62;;;;;25.20;1.00;;;;;;2279939;60;1586;-88
2023/07/15 00:40:41;263776.00;0.88;455.64;0.00;0.00;0.62;;;;;25.20;1.00;;;;;;2280294;60;1267;-88
2023/07/15 00:43:45;261670.00;0.87;452.02;14398.00;0.05;25.57;;;;;25.10;1.00;;;;;;2280256;60;1285;-88
2023/07/15 00:46:56;121366.00;0.40;210.44;0.00;0.00;0.62;;;;;24.80;1.00;;;;;;2280167;60;2018;-86
2023/07/15 00:49:25;479228.00;1.60;826.07;66404.00;0.22;115.55;;;;;24.50;1.00;;;;;;2280167;60;1741;-86
2023/07/15 00:52:01;343827.00;1.15;593.25;68897.00;0.23;119.85;;;;;24.70;1.00;;;;;;2280184;60;1395;-88
2023/07/15 00:54:29;439810.00;1.47;758.26;126626.00;0.42;219.51;;;;;24.60;1.00;;;;;;2280303;60;915;-85
2023/07/15 00:56:56;568148.00;1.89;979.25;82552.00;0.28;143.45;;;;;24.80;1.00;;;;;;2280188;60;1745;-88
2023/07/15 00:59:25;380486.00;1.27;656.26;90438.00;0.30;157.06;;;;;24.70;1.00;;;;;;2280153;60;1018;-88
2023/07/15 01:01:54;480850.00;1.60;828.86;118519.00;0.40;205.53;;;;;24.70;1.00;;;;;;2280111;60;1281;-89
2023/07/15 01:04:22;418365.00;1.39;721.38;64898.00;0.22;112.94;;;;;24.50;1.00;;;;;;2280029;60;1645;-87
2023/07/15 01:06:49;362500.00;1.21;625.35;67274.00;0.22;117.05;;;;;24.40;1.00;;;;;;2280062;60;2011;-88
2023/07/15 01:09:16;451420.00;1.50;778.23;60679.00;0.20;105.65;;;;;24.30;1.00;;;;;;2280146;60;1703;-88
2023/07/15 01:11:44;315178.00;1.05;544.01;47165.00;0.16;82.28;;;;;24.40;1.00;;;;;;2279992;60;1368;-87
2023/07/15 01:14:12;449518.00;1.50;774.95;117556.00;0.39;203.87;;;;;24.20;1.00;;;;;;2280147;60;837;-88
2023/07/15 01:16:40;224751.00;0.75;388.52;71302.00;0.24;124.01;;;;;24.30;1.00;;;;;;2280091;60;1751;-88
2023/07/15 01:19:08;591172.00;1.97;1018.98;63186.00;0.21;109.98;;;;;24.30;1.00;;;;;;2280060;60;914;-87
2023/07/15 01:21:36;595923.00;1.99;1027.18;72999.00;0.24;126.94;;;;;24.30;1.00;;;;;;2280014;60;1367;-88
2023/07/15 01:24:07;448344.00;1.49;772.93;68727.00;0.23;119.56;;;;;24.30;1.00;;;;;;2280010;60;1756;-88
2023/07/15 01:26:34;261764.00;0.87;452.18;59170.00;0.20;103.04;;;;;24.30;1.00;;;;;;2280093;60;2046;-87
2023/07/15 01:29:03;372190.00;1.24;642.00;61502.00;0.21;107.07;;;;;24.40;1.00;;;;;;2280210;60;987;-88
2023/07/15 01:31:30;364308.00;1.21;628.45;63132.00;0.21;109.89;;;;;24.50;1.00;;;;;;2279960;60;1408;-88
2023/07/15 01:33:57;575010.00;1.92;991.09;65365.00;0.22;113.75;;;;;24.70;1.00;;;;;;2279935;60;1582;-87
2023/07/15 01:36:26;727430.00;2.42;1254.84;132042.00;0.44;228.85;;;;;24.90;1.00;;;;;;2280129;60;934;-86
2023/07/15 01:38:53;391893.00;1.31;675.87;68657.00;0.23;119.44;;;;;25.10;1.00;;;;;;2279948;60;1626;-87
2023/07/15 01:41:22;574759.00;1.92;990.66;68138.00;0.23;118.54;;;;;25.20;1.00;;;;;;2279973;60;1609;-88
2023/07/15 01:43:48;444659.00;1.48;766.60;68081.00;0.23;118.44;;;;;24.80;1.00;;;;;;2279930;60;1793;-87
2023/07/15 01:46:15;413475.00;1.38;712.97;70989.00;0.24;123.47;;;;;24.60;1.00;;;;;;2279915;60;1998;-85
2023/07/15 01:48:42;429741.00;1.43;740.94;70494.00;0.23;122.61;;;;;24.60;1.00;;;;;;2279913;60;1424;-87
2023/07/15 01:51:09;406205.00;1.35;700.47;66232.00;0.22;115.25;;;;;24.60;1.00;;;;;;2279986;60;1401;-88
2023/07/15 01:53:36;467257.00;1.56;805.47;63145.00;0.21;109.91;;;;;24.80;1.00;;;;;;2280004;60;922;-88
2023/07/15 01:56:03;415659.00;1.39;716.73;59829.00;0.20;104.18;;;;;25.00;1.00;;;;;;2280073;60;1152;-87
2023/07/15 01:58:33;433988.00;1.45;748.24;67868.00;0.23;118.08;;;;;25.10;1.00;;;;;;2279943;60;885;-88
2023/07/15 02:00:59;406337.00;1.35;700.70;61696.00;0.21;107.41;;;;;25.20;1.00;;;;;;2279936;60;1350;-88
2023/07/15 02:03:26;316479.00;1.05;546.25;64833.00;0.22;112.83;;;;;25.10;1.00;;;;;;2279937;60;1113;-89
2023/07/15 02:05:53;504559.00;1.68;869.67;67102.00;0.22;116.75;;;;;24.90;1.00;;;;;;2315678;40;3921;-85
2023/07/15 02:08:22;357655.00;1.19;617.02;73415.00;0.24;127.66;;;;;24.70;1.00;;;;;;2279929;60;960;-90
2023/07/15 02:10:50;449202.00;1.50;774.41;63659.00;0.21;110.80;;;;;24.50;1.00;;;;;;2280661;39;3612;-88
2023/07/15 02:13:17;349191.00;1.16;602.47;62769.00;0.21;109.26;;;;;24.40;1.00;;;;;;2276506;61;1123;-88
2023/07/15 02:15:46;413025.00;1.38;712.20;68590.00;0.23;119.32;;;;;24.60;1.00;;;;;;2275695;61;1093;-87
2023/07/15 02:18:13;308841.00;1.03;533.12;70088.00;0.23;121.91;;;;;24.70;1.00;;;;;;2294688;39;3599;-86
2023/07/15 02:20:40;457458.00;1.52;788.61;63259.00;0.21;110.11;;;;;24.80;1.00;;;;;;2279866;60;1605;-88
2023/07/15 02:23:08;409881.00;1.37;706.79;64236.00;0.21;111.80;;;;;25.00;1.00;;;;;;2279885;60;1655;-86
2023/07/15 02:25:35;374421.00;1.25;645.84;62528.00;0.21;108.85;;;;;25.10;1.00;;;;;;2279749;60;2006;-87
2023/07/15 02:28:03;436122.00;1.45;751.91;63829.00;0.21;111.10;;;;;25.30;1.00;;;;;;2279866;60;1787;-86
2023/07/15 02:30:30;396124.00;1.32;683.14;109983.00;0.37;190.80;;;;;25.10;1.00;;;;;;2279887;60;1085;-87
2023/07/15 02:32:59;302911.00;1.01;522.92;67918.00;0.23;118.16;;;;;24.90;1.00;;;;;;2279777;60;1731;-88
2023/07/15 02:35:26;485923.00;1.62;837.59;67569.00;0.23;117.56;;;;;24.80;1.00;;;;;;2279832;60;910;-87
2023/07/15 02:40:25;1257330.00;4.19;2194.22;95948.00;0.32;166.58;;;;;25.10;1.00;;;;;;2281646;60;1390;-87
2023/07/15 02:42:53;483633.00;1.61;833.65;111254.00;0.37;192.99;;;;;24.90;1.00;;;;;;2279794;60;1302;-87
2023/07/15 02:45:19;869932.00;2.90;1503.37;64313.00;0.21;111.93;;;;;24.70;1.00;;;;;;2291847;56;3846;-86
2023/07/15 02:47:47;117355536.00;391.19;65469480.00;63230.00;0.21;110.06;;;;;24.80;1.00;;;;;;2294918;39;3781;-87
2023/07/15 02:50:16;545055.00;1.82;939.44;84104.00;0.28;146.13;;;;;24.90;1.00;;;;;;2279834;60;1275;-87
2023/07/15 02:52:43;601524.00;2.01;1036.85;104404.00;0.35;181.17;;;;;24.90;1.00;;;;;;2279799;60;1612;-87
2023/07/15 02:55:10;798117.00;2.66;1377.84;63436.00;0.21;110.42;;;;;24.70;1.00;;;;;;2287296;40;3602;-87
2023/07/15 02:57:37;456765.00;1.52;787.42;59886.00;0.20;104.28;;;;;24.50;1.00;;;;;;2279642;60;1032;-88
2023/07/15 03:02:35;1054017.00;3.51;1828.38;65541.00;0.22;114.05;;;;;24.00;1.00;;;;;;2281734;60;1405;-87
2023/07/15 03:05:03;434009.00;1.45;748.28;89439.00;0.30;155.34;;;;;24.00;1.00;;;;;;2352172;55;3701;-87
2023/07/15 03:07:31;537763.00;1.79;926.87;65444.00;0.22;113.89;;;;;23.90;1.00;;;;;;2331896;55;3683;-86
2023/07/15 03:09:58;565208.00;1.88;974.18;112839.00;0.38;195.73;;;;;24.00;1.00;;;;;;2279896;60;1007;-87
2023/07/15 03:12:25;579439.00;1.93;998.73;69228.00;0.23;120.43;;;;;24.10;1.00;;;;;;2280699;60;1425;-88
2023/07/15 03:14:52;485511.00;1.62;836.88;75205.00;0.25;130.75;;;;;24.10;1.00;;;;;;2280603;60;1713;-87
2023/07/15 03:17:19;568631.00;1.90;980.09;86089.00;0.29;149.55;;;;;24.00;1.00;;;;;;2280573;60;1729;-88
2023/07/15 03:22:19;1589387.00;5.30;2812.47;124886.00;0.42;216.51;;;;;23.60;1.00;;;;;;2278205;61;1342;-87
2023/07/15 03:24:47;604494.00;2.01;1041.98;71372.00;0.24;124.13;;;;;23.50;1.00;;;;;;2276522;61;997;-88
2023/07/15 03:27:13;700005.00;2.33;1207.25;71182.00;0.24;123.80;;;;;23.30;1.00;;;;;;2276561;61;2005;-88
2023/07/15 03:29:40;867430.00;2.89;1498.99;104827.00;0.35;181.90;;;;;23.10;1.00;;;;;;2276648;61;1263;-88
2023/07/15 03:32:07;840170.00;2.80;1451.27;122404.00;0.41;212.23;;;;;22.80;1.00;;;;;;2276507;61;1408;-89
2023/07/15 03:34:34;386349.00;1.29;666.34;93559.00;0.31;162.45;;;;;22.50;1.00;;;;;;2276468;61;1720;-89
2023/07/15 03:37:02;627222.00;2.09;1081.25;74301.00;0.25;129.19;;;;;22.70;1.00;;;;;;2276519;61;1333;-88
2023/07/15 03:39:29;312211.00;1.04;538.91;72082.00;0.24;125.36;;;;;22.90;1.00;;;;;;2276634;61;1169;-88
2023/07/15 03:41:57;375529.00;1.25;647.74;67644.00;0.23;117.69;;;;;22.90;1.00;;;;;;2276538;61;1382;-88
2023/07/15 03:44:24;308487.00;1.03;532.51;62472.00;0.21;108.75;;;;;23.30;1.00;;;;;;2276517;61;1738;-88
2023/07/15 03:46:54;403655.00;1.35;696.09;66980.00;0.22;116.54;;;;;23.40;1.00;;;;;;2276515;61;1923;-90
2023/07/15 03:49:22;417702.00;1.39;720.24;64486.00;0.21;112.23;;;;;23.50;1.00;;;;;;2276533;61;1078;-89
2023/07/15 03:51:49;468547.00;1.56;807.69;67497.00;0.22;117.43;;;;;23.50;1.00;;;;;;2276541;61;1367;-87
2023/07/15 03:56:45;1656177.00;5.52;2940.59;148771.00;0.50;257.69;;;;;23.30;1.00;;;;;;2282433;60;1444;-88
2023/07/15 03:59:13;549093.00;1.83;946.40;69013.00;0.23;120.05;;;;;23.40;1.00;;;;;;2280434;60;1332;-88
2023/07/15 04:01:40;595163.00;1.98;1025.87;81419.00;0.27;141.49;;;;;23.50;1.00;;;;;;2288151;55;3786;-87
2023/07/15 04:04:09;600903.00;2.00;1035.78;68278.00;0.23;118.78;;;;;23.40;1.00;;;;;;2280560;60;1129;-88
2023/07/15 04:11:33;1268859.00;4.23;2215.23;49525.00;0.17;86.36;;;;;23.80;1.00;;;;;;1964890;56;3632;-86
2023/07/15 04:16:33;1655694.00;5.52;2939.66;84442.00;0.28;146.71;;;;;23.90;1.00;;;;;;2278091;61;1398;-88
2023/07/15 04:21:27;1009517.00;3.37;1749.33;68500.00;0.23;119.17;;;;;23.70;1.00;;;;;;2278138;61;1385;-88
2023/07/15 04:26:23;1379424.00;4.60;2418.22;64868.00;0.22;112.89;;;;;23.70;1.00;;;;;;2281755;60;1897;-88
2023/07/15 04:28:51;579680.00;1.93;999.15;90919.00;0.30;157.89;;;;;23.60;1.00;;;;;;2280268;60;1512;-88
2023/07/15 04:33:53;1366775.00;4.56;2394.84;0.00;0.00;0.62;;;;;24.00;1.00;;;;;;2282146;60;1430;-87
2023/07/15 04:36:22;327308.00;1.09;564.86;0.00;0.00;0.62;;;;;24.20;1.00;;;;;;2280395;60;1617;-87
2023/07/15 04:38:49;431167.00;1.44;743.39;0.00;0.00;0.62;;;;;23.70;1.00;;;;;;2280502;60;1004;-87
2023/07/15 04:43:45;1256714.00;4.19;2193.10;17391.00;0.06;30.75;;;;;23.50;1.00;;;;;;2281858;60;1300;-89
2023/07/15 04:46:13;349491.00;1.16;602.99;0.00;0.00;0.62;;;;;23.60;1.00;;;;;;2288380;39;3628;-89
2023/07/15 04:48:40;344246.00;1.15;593.97;35528.00;0.12;62.15;;;;;23.50;1.00;;;;;;2280368;60;1697;-87
2023/07/15 04:51:09;331826.00;1.11;572.62;15309.00;0.05;27.15;;;;;23.40;1.00;;;;;;2280466;60;1404;-89
2023/07/15 04:53:42;704476.00;2.35;1215.00;0.00;0.00;0.62;;;;;23.70;1.00;;;;;;2295253;56;3776;-89
2023/07/15 05:16:06;1355235.00;4.52;2373.55;135123.00;0.45;234.16;;;;;24.20;1.00;;;;;;2345036;39;3560;-91
2023/07/15 05:31:07;1301150.00;4.34;2274.21;0.00;0.00;0.62;;;;;24.60;1.00;;;;;;2333903;39;3486;-87
2023/07/15 05:36:04;1182113.00;3.94;2057.91;93626.00;0.31;162.57;;;;;24.70;1.00;;;;;;2281799;60;1438;-88
2023/07/15 05:40:59;1526074.00;5.09;2692.28;0.00;0.00;0.62;;;;;25.30;1.00;;;;;;1985061;40;3449;-88
2023/07/15 05:43:26;451085.00;1.50;777.65;0.00;0.00;0.62;;;;;25.60;1.00;;;;;;2301845;39;3639;-87
2023/07/15 05:45:53;1192215.00;3.97;2076.15;58508.00;0.20;101.90;;;;;25.90;1.00;;;;;;2282131;60;2502;-87
2023/07/15 05:50:51;763814.00;2.55;1318.09;0.00;0.00;0.62;;;;;27.80;1.00;;;;;;2282687;61;1338;-89
2023/07/15 05:53:18;281023.00;0.94;485.30;0.00;0.00;0.62;;;;;29.60;1.00;;;;;;2280938;61;2071;-89
2023/07/15 05:55:46;200374.00;0.67;346.57;0.00;0.00;0.62;;;;;31.30;1.00;;;;;;2280242;60;1013;-88
2023/07/15 05:58:14;205073.00;0.68;354.66;0.00;0.00;0.62;;;;;33.00;1.00;;;;;;2280074;60;1048;-88
2023/07/15 06:00:42;191058.00;0.64;330.53;0.00;0.00;0.62;;;;;34.60;1.00;;;;;;2280268;60;1361;-89
2023/07/15 06:03:09;83774.00;0.28;145.56;0.00;0.00;0.62;;;;;36.00;1.00;;;;;;2280071;60;1093;-88
2023/07/15 06:05:36;250678.00;0.84;433.12;0.00;0.00;0.62;;;;;36.70;1.00;;;;;;2285767;39;3617;-87
2023/07/15 06:08:05;219240.00;0.73;379.04;0.00;0.00;0.62;;;;;37.40;1.00;;;;;;2280855;61;2022;-92
2023/07/15 06:10:32;42506.00;0.14;74.22;0.00;0.00;0.62;;;;;37.90;1.00;;;;;;2280928;61;1109;-89
2023/07/15 06:12:59;36269.00;0.12;63.43;0.00;0.00;0.62;;;;;38.20;1.00;;;;;;2280862;61;1196;-90
2023/07/15 06:15:26;286873.00;0.96;495.35;113749.00;0.38;197.30;;;;;38.30;1.00;;;;;;2280958;61;954;-90
2023/07/15 06:17:54;9823.00;0.03;17.64;0.00;0.00;0.62;;;;;38.90;1.00;;;;;;2280300;60;1110;-88
2023/07/15 06:20:21;0.00;0.00;0.62;0.00;0.00;0.62;;;;;39.40;1.00;;;;;;2280357;60;1169;-89
2023/07/15 06:22:48;0.00;0.00;0.62;0.00;0.00;0.62;;;;;39.30;1.00;;;;;;2280222;60;1321;-88
2023/07/15 06:25:17;37158.00;0.12;64.97;0.00;0.00;0.62;;;;;39.40;1.00;;;;;;2280276;60;1104;-89
2023/07/15 06:27:44;37002.00;0.12;64.70;0.00;0.00;0.62;;;;;40.10;1.00;;;;;;2280273;60;1993;-88
2023/07/15 06:30:11;501.00;0.00;1.49;0.00;0.00;0.62;;;;;40.30;1.00;;;;;;2280218;60;1054;-90
2023/07/15 06:32:38;399.00;0.00;1.31;0.00;0.00;0.62;;;;;41.00;1.00;;;;;;2280225;60;1398;-88
2023/07/15 06:35:06;0.00;0.00;0.62;0.00;0.00;0.62;;;;;41.20;1.00;;;;;;2280271;60;1108;-89
2023/07/15 06:37:34;53682.00;0.18;93.55;0.00;0.00;0.62;;;;;41.40;1.00;;;;;;2280246;60;1060;-88
2023/07/15 06:40:00;49975.00;0.17;87.14;0.00;0.00;0.62;;;;;41.70;1.00;;;;;;2280267;60;1022;-88
2023/07/15 06:42:29;50598.00;0.17;88.22;0.00;0.00;0.62;;;;;41.30;1.00;;;;;;2280207;60;1246;-87
2023/07/15 06:44:55;178413.00;0.59;308.76;32125.00;0.11;56.26;;;;;41.40;1.00;;;;;;2280210;60;1037;-87
2023/07/15 06:47:22;165711.00;0.55;286.88;0.00;0.00;0.62;;;;;41.70;1.00;;;;;;2280866;60;1914;-87
2023/07/15 06:49:49;85828.00;0.29;149.10;0.00;0.00;0.62;;;;;42.00;1.00;;;;;;2280853;60;1166;-88
2023/07/15 06:52:16;0.00;0.00;0.62;0.00;0.00;0.62;;;;;42.30;1.00;;;;;;2280931;60;1374;-86
2023/07/15 06:54:43;45866.00;0.15;80.04;0.00;0.00;0.62;;;;;42.40;1.00;;;;;;2280970;60;918;-87
2023/07/15 06:57:09;0.00;0.00;0.62;0.00;0.00;0.62;;;;;42.70;1.00;;;;;;2280906;60;1133;-87
2023/07/15 06:59:38;0.00;0.00;0.62;0.00;0.00;0.62;;;;;43.90;1.00;;;;;;2280926;60;1095;-88
2023/07/15 07:02:05;0.00;0.00;0.62;0.00;0.00;0.62;;;;;44.30;1.00;;;;;;2280897;60;1382;-87
2023/07/15 07:04:31;0.00;0.00;0.62;0.00;0.00;0.62;;;;;43.40;1.00;;;;;;2280935;60;1093;-89
2023/07/15 07:06:58;175825.00;0.59;304.30;0.00;0.00;0.62;;;;;44.20;1.00;;;;;;2280874;60;1981;-89
2023/07/15 07:09:25;0.00;0.00;0.62;0.00;0.00;0.62;;;;;43.70;1.00;;;;;;2280880;60;1056;-88
2023/07/15 07:11:52;27190.00;0.09;47.72;0.00;0.00;0.62;;;;;44.10;1.00;;;;;;2280790;60;1245;-86
2023/07/15 07:14:19;62332.00;0.21;108.51;0.00;0.00;0.62;;;;;44.70;1.00;;;;;;2280830;60;1119;-86
2023/07/15 07:16:47;84615.00;0.28;147.01;0.00;0.00;0.62;;;;;44.40;1.00;;;;;;2280902;60;1058;-87
2023/07/15 07:19:14;52044.00;0.17;90.72;0.00;0.00;0.62;;;;;44.10;1.00;;;;;;2280821;60;1075;-87
2023/07/15 07:21:42;31934.00;0.11;55.93;0.00;0.00;0.62;;;;;44.00;1.00;;;;;;2280872;60;1353;-88
2023/07/15 07:24:10;166907.00;0.56;288.94;0.00;0.00;0.62;;;;;44.10;1.00;;;;;;2280876;60;1184;-87
2023/07/15 07:26:37;103364.00;0.34;179.38;0.00;0.00;0.62;;;;;44.50;1.00;;;;;;2280808;60;1919;-87
2023/07/15 07:29:04;126651.00;0.42;219.55;0.00;0.00;0.62;;;;;44.90;1.00;;;;;;2280847;60;1056;-88
2023/07/15 07:31:31;0.00;0.00;0.62;0.00;0.00;0.62;;;;;44.10;1.00;;;;;;2280753;60;1676;-89
2023/07/15 07:33:59;14441.00;0.05;25.64;0.00;0.00;0.62;;;;;44.30;1.00;;;;;;2280882;60;1138;-88
2023/07/15 07:55:11;1485030.00;4.95;2614.98;46091.00;0.15;80.43;;;;;43.00;1.00;;;;;;2462710;39;3665;31
2023/07/15 08:43:47;1437350.00;4.79;2525.78;31017.00;0.10;54.34;;;;;41.50;1.00;;;;;;2282094;60;1169;-84
2023/07/15 09:26:39;1110693.00;3.70;1929.56;3767.00;0.01;7.15;;;;;41.20;1.00;;;;;;2282198;60;1972;-86
2023/07/15 09:29:06;295340.00;0.98;509.91;28495.00;0.09;49.98;;;;;40.60;1.00;;;;;;2280341;60;921;-89
2023/07/15 09:31:33;101476.00;0.34;176.12;0.00;0.00;0.62;;;;;40.00;1.00;;;;;;2280439;60;1374;-90
2023/07/15 09:34:04;593831.00;1.98;1023.57;28714.00;0.10;50.36;;;;;39.60;1.00;;;;;;2280542;60;1115;-87
2023/07/15 09:36:32;481010.00;1.60;829.14;0.00;0.00;0.62;;;;;39.10;1.00;;;;;;2280397;60;1075;-89
2023/07/15 09:41:27;1044085.00;3.48;1810.71;0.00;0.00;0.62;;;;;38.80;1.00;;;;;;2282124;60;1422;-90
2023/07/15 09:46:27;1582709.00;5.28;2799.74;108287.00;0.36;187.87;;;;;38.20;1.00;;;;;;2281626;60;1302;-88
2023/07/15 09:53:55;748079.00;2.49;1290.72;17709.00;0.06;31.30;;;;;38.00;1.00;;;;;;2282124;60;1236;-90
2023/07/15 09:58:55;1195325.00;3.98;2081.77;86237.00;0.29;149.81;;;;;38.70;1.00;;;;;;2281956;60;1372;-90
2023/07/15 10:01:29;605270.00;2.02;1043.32;17737.00;0.06;31.35;;;;;38.80;1.00;;;;;;2280297;60;1281;-90
2023/07/15 10:04:08;651251.00;2.17;1122.80;28517.00;0.10;50.02;;;;;38.90;1.00;;;;;;2282417;55;3773;-88
2023/07/15 10:06:35;472008.00;1.57;813.64;26820.00;0.09;47.08;;;;;39.00;1.00;;;;;;2283063;39;3627;-89
2023/07/15 10:09:04;713230.00;2.38;1230.19;9476.00;0.03;17.04;;;;;39.20;1.00;;;;;;2280075;60;1134;-89
2023/07/15 10:11:33;806004.00;2.69;1391.60;80296.00;0.27;139.55;;;;;38.80;1.00;;;;;;2279995;60;1620;-88
2023/07/15 10:14:01;659334.00;2.20;1136.79;109086.00;0.36;189.25;;;;;38.70;1.00;;;;;;2279909;60;1136;-88
2023/07/15 10:19:01;1332601.00;4.44;2331.89;133762.00;0.45;231.82;;;;;39.30;1.00;;;;;;2296889;56;3587;-89
2023/07/15 10:21:28;207193.00;0.69;358.30;1017.00;0.00;2.38;;;;;39.60;1.00;;;;;;2280922;60;1408;-88
2023/07/15 10:24:08;464194.00;1.55;800.20;48156.00;0.16;84.00;;;;;39.40;1.00;;;;;;2280833;60;1576;-89
2023/07/15 10:26:35;34250.00;0.11;59.94;0.00;0.00;0.62;;;;;38.90;1.00;;;;;;2281039;60;1082;-86
2023/07/15 10:29:03;187666.00;0.63;324.69;0.00;0.00;0.62;;;;;38.30;1.00;;;;;;2280997;60;2053;-87
2023/07/15 10:31:30;242321.00;0.81;418.74;0.00;0.00;0.62;;;;;38.50;1.00;;;;;;2280897;60;1721;-86
2023/07/15 10:34:04;230220.00;0.77;397.93;0.00;0.00;0.62;;;;;38.80;1.00;;;;;;2281142;60;1076;-87
2023/07/15 10:36:40;230028.00;0.77;397.60;52673.00;0.18;91.81;;;;;38.80;1.00;;;;;;2280926;60;1142;-87
2023/07/15 10:39:13;200595.00;0.67;346.95;0.00;0.00;0.62;;;;;38.70;1.00;;;;;;2281084;60;1001;-87
2023/07/15 10:41:47;202935.00;0.68;350.98;0.00;0.00;0.62;;;;;38.50;1.00;;;;;;2281090;60;1414;-89
2023/07/15 10:44:21;54539.00;0.18;95.04;0.00;0.00;0.62;;;;;38.40;1.00;;;;;;2281209;60;963;-86
2023/07/15 10:46:52;173040.00;0.58;299.50;0.00;0.00;0.62;;;;;38.70;1.00;;;;;;2281079;60;1946;-85
2023/07/15 10:49:21;168923.00;0.56;292.41;0.00;0.00;0.62;;;;;38.70;1.00;;;;;;2281124;60;941;-83
2023/07/15 10:51:52;24024.00;0.08;42.24;0.00;0.00;0.62;;;;;38.80;1.00;;;;;;2281006;60;1303;-84
2023/07/15 10:54:20;8068.00;0.03;14.60;0.00;0.00;0.62;;;;;38.80;1.00;;;;;;2281082;60;1607;-84
2023/07/15 10:56:47;135089.00;0.45;234.10;0.00;0.00;0.62;;;;;38.70;1.00;;;;;;2281061;60;1719;-88
2023/07/15 10:59:15;106393.00;0.35;184.61;0.00;0.00;0.62;;;;;38.80;1.00;;;;;;2281118;60;2254;-87
2023/07/15 11:01:43;336220.00;1.12;580.18;48008.00;0.16;83.74;;;;;38.90;1.00;;;;;;2280959;60;1398;-87
2023/07/15 11:04:11;7441.00;0.02;13.52;0.00;0.00;0.62;;;;;39.20;1.00;;;;;;2281011;60;993;-87
2023/07/15 11:06:39;208015.00;0.69;359.72;0.00;0.00;0.62;;;;;39.30;1.00;;;;;;2281107;60;1267;-87
2023/07/15 11:09:17;53502.00;0.18;93.24;0.00;0.00;0.62;;;;;39.00;1.00;;;;;;2281077;60;1932;-87
2023/07/15 11:11:45;257684.00;0.86;445.17;0.00;0.00;0.62;;;;;39.00;1.00;;;;;;2281049;60;1735;-90
2023/07/15 11:14:23;112248.00;0.37;194.71;0.00;0.00;0.62;;;;;39.00;1.00;;;;;;2282742;55;3804;-86
2023/07/15 11:16:53;297424.00;0.99;513.49;0.00;0.00;0.62;;;;;38.80;1.00;;;;;;2280920;60;1615;-83
2023/07/15 11:19:21;124833.00;0.42;216.42;0.00;0.00;0.62;;;;;38.80;1.00;;;;;;2280977;60;1438;-86
2023/07/15 11:21:51;189600.00;0.63;328.02;0.00;0.00;0.62;;;;;39.00;1.00;;;;;;2280987;60;1394;-84
2023/07/15 11:24:19;140256.00;0.47;243.01;0.00;0.00;0.62;;;;;39.00;1.00;;;;;;2280873;60;1093;-83
2023/07/15 11:26:46;289283.00;0.96;499.50;14884.00;0.05;26.41;;;;;38.80;1.00;;;;;;2280654;60;1180;-89
2023/07/15 11:29:18;159817.00;0.53;276.72;0.00;0.00;0.62;;;;;38.90;1.00;;;;;;2280831;60;2006;-86
2023/07/15 11:31:47;154311.00;0.51;267.24;0.00;0.00;0.62;;;;;39.10;1.00;;;;;;2280829;60;1355;-85
2023/07/15 11:34:17;192929.00;0.64;333.75;42282.00;0.14;73.84;;;;;38.90;1.00;;;;;;2280890;60;2251;-85
2023/07/15 11:36:44;231336.00;0.77;399.85;0.00;0.00;0.62;;;;;38.90;1.00;;;;;;2280918;60;943;-89
2023/07/15 11:39:14;143002.00;0.48;247.75;0.00;0.00;0.62;;;;;39.00;1.00;;;;;;2281125;60;919;-85
2023/07/15 11:41:42;250624.00;0.84;433.02;52266.00;0.17;91.10;;;;;39.50;1.00;;;;;;2280780;60;1755;-87
2023/07/15 11:44:12;1619.00;0.01;3.43;0.00;0.00;0.62;;;;;39.60;1.00;;;;;;2280930;60;1743;-87
2023/07/15 11:46:40;218624.00;0.73;377.98;0.00;0.00;0.62;;;;;39.20;1.00;;;;;;2280735;60;1128;-89
2023/07/15 11:49:08;198828.00;0.66;343.91;0.00;0.00;0.62;;;;;39.00;1.00;;;;;;2280707;60;2032;-87
2023/07/15 11:54:09;880085.00;2.93;1521.17;0.00;0.00;0.62;;;;;39.20;1.00;;;;;;2333274;56;3616;-88
2023/07/15 11:56:39;237244.00;0.79;410.01;0.00;0.00;0.62;;;;;39.30;1.00;;;;;;2280789;60;1131;-88
2023/07/15 11:59:08;273459.00;0.91;472.29;0.00;0.00;0.62;;;;;39.10;1.00;;;;;;2280903;60;1559;-89
2023/07/15 12:01:37;228684.00;0.76;395.28;0.00;0.00;0.62;;;;;38.90;1.00;;;;;;2280938;60;1344;-86
2023/07/15 12:04:13;153433.00;0.51;265.72;0.00;0.00;0.62;;;;;39.20;1.00;;;;;;2280890;60;1597;-87
2023/07/15 12:09:14;1392385.00;4.64;2442.21;8403.00;0.03;15.18;;;;;38.70;1.00;;;;;;2282432;60;2006;-88
2023/07/15 12:11:43;88186.00;0.29;153.18;0.00;0.00;0.62;;;;;38.50;1.00;;;;;;2289781;55;3823;-84
2023/07/15 12:14:12;167122.00;0.56;289.31;0.00;0.00;0.62;;;;;38.50;1.00;;;;;;2282534;55;3814;-89
2023/07/15 12:16:40;244.00;0.00;1.04;0.00;0.00;0.62;;;;;38.60;1.00;;;;;;2281074;60;1121;-87
2023/07/15 12:26:38;921672.00;3.07;1594.22;0.00;0.00;0.62;;;;;38.20;1.00;;;;;;2279036;61;1225;-86
2023/07/15 12:29:06;182548.00;0.61;315.88;0.00;0.00;0.62;;;;;38.50;1.00;;;;;;2353433;39;3750;-83
2023/07/15 12:31:33;167321.00;0.56;289.65;0.00;0.00;0.62;;;;;38.70;1.00;;;;;;2281047;60;1556;-87
2023/07/15 12:34:00;118925.00;0.40;206.23;0.00;0.00;0.62;;;;;39.10;1.00;;;;;;2281084;60;1653;-88
2023/07/15 12:36:28;199846.00;0.67;345.66;0.00;0.00;0.62;;;;;39.40;1.00;;;;;;2281022;60;1480;-89
2023/07/15 12:38:55;337999.00;1.13;583.23;28025.00;0.09;49.16;;;;;39.40;1.00;;;;;;2281022;60;1661;-88
2023/07/15 12:49:03;1183990.00;3.95;2061.30;0.00;0.00;0.62;;;;;39.20;1.00;;;;;;2282624;60;1894;-87
2023/07/15 12:51:31;183895.00;0.61;318.20;0.00;0.00;0.62;;;;;39.60;1.00;;;;;;2280562;60;1754;-88
2023/07/15 12:53:59;171636.00;0.57;297.08;0.00;0.00;0.62;;;;;39.70;1.00;;;;;;2280219;60;1770;-89
2023/07/15 13:01:29;48195.00;0.16;84.06;0.00;0.00;0.62;;;;;38.70;1.00;;;;;;1850758;40;3214;-87
2023/07/15 13:03:57;274661.00;0.92;474.36;0.00;0.00;0.62;;;;;38.30;1.00;;;;;;2280489;60;1579;-89
2023/07/15 13:06:25;183328.00;0.61;317.22;0.00;0.00;0.62;;;;;38.70;1.00;;;;;;2280559;60;1594;-91
2023/07/15 13:08:53;322862.00;1.08;557.22;0.00;0.00;0.62;;;;;38.80;1.00;;;;;;2280284;60;2020;-90
2023/07/15 13:11:20;351835.00;1.17;607.02;13848.00;0.05;24.62;;;;;38.90;1.00;;;;;;2309280;39;3772;-85
2023/07/15 13:13:47;177946.00;0.59;307.95;0.00;0.00;0.62;;;;;39.20;1.00;;;;;;2286735;55;3768;-87
2023/07/15 13:16:15;205754.00;0.69;355.83;0.00;0.00;0.62;;;;;39.20;1.00;;;;;;2280309;60;1058;-88
2023/07/15 13:18:42;259322.00;0.86;447.98;0.00;0.00;0.62;;;;;38.90;1.00;;;;;;2280348;60;1558;-86
2023/07/15 13:21:09;175243.00;0.58;303.30;0.00;0.00;0.62;;;;;39.30;1.00;;;;;;2280391;60;1611;-86
2023/07/15 13:36:11;1116058.00;3.72;1939.16;0.00;0.00;0.62;;;;;38.90;1.00;;;;;;2287026;39;3538;-89